Unicom:                    122.8

AWOS:                  118.275

Elevation           1458’ MSL

TPA:                   2500’ MSL

06/24:         5003’ L   75’ W

PAPI:       06/Left     24/Left

(Operate lights on unicom freq.)

Traffic Pattern: Left

Beacon: Sunset to Sunrise

Windsock: yes, lighted

Segmented Circle: No

 

Cleveland Center: 126.72/291.65

FSS: Altoona

[Source: ADDS]
METAR
KFKL 281912Z AUTO 36005KT 9SM -SN SCT016 OVC032 M06/M09 A3003 RMK AO2 P0000 FZRANO =
KFKL 281926Z 2819/2918 01008KT P6SM -SN OVC035 FM282200 36007KT P6SM OVC010 FM290600 01012KT P6SM SCT010
TAF
KFKL 281926Z 2819/2918 01008KT P6SM -SN OVC035 FM282200 36007KT P6SM OVC010 FM290600 01012KT P6SM SCT010 =
[Source: ADDS]
METAR
KDUJ 281853Z AUTO 34004KT 6SM HZ SCT021 OVC027 M03/M07 A2996 RMK AO2 SLP169 T10281067 =
KDUJ 281727Z 2818/2918 36005KT 6SM BR VCSH OVC015 FM282000 01008KT P6SM OVC020 FM290600 02007KT P6SM SCT029 FM291300 35008G17KT P6SM SCT070
TAF
KDUJ 281727Z 2818/2918 36005KT 6SM BR VCSH OVC015 FM282000 01008KT P6SM OVC020 FM290600 02007KT P6SM SCT029 FM291300 35008G17KT P6SM SCT070 =

Welcome to Clarion County Airport.

We look forward to serving all of your aviation needs.


Clarion County Airport is a General Aviation, Business Class airport serving the Clarion County Area in Central Western Pennsylvania.  Our 5,003' asphalt runway and gps approaches are capable of serving most of the general aviation fleet in most weather conditions.


If you are planning a fuel stop while flying in Western Pennsylvania, consider paying us a visit. Our prices are some of the lowest in the state Check prices here ----> www.airnav.com/fuel and enter identifier KAXQ or see current prices below. We can have you fueled and taxiing out to the runway in about 10 minutes. Our current hours of operation are Monday- Sunday 8:00AM-4:00PM. Holiday closures are Christmas Day and Thanksgiving. If you require use of the facilities during the holidays or after hours please call ahead and someone will be there to assist you.


- Airport Manager -  


                             CURRENT FUEL PRICES       JET-A w/additive    $4.10            100LL     $4.95 CC  


                              Self Service fueling available 24/7, credit card reader enabled. Center point fueling available upon request.

                                                           For after hours fueling assistance please contact 814-316-5746